sensor_id;sensor_type;location;lat;lon;timestamp;pressure;altitude;pressure_sealevel;temperature;humidity
43155;BME280;34212;51.018;13.586;2023-01-30T00:01:33;97874.28;;;-0.37;87.03
43155;BME280;34212;51.018;13.586;2023-01-30T00:06:34;97860.13;;;-0.34;87.74
43155;BME280;34212;51.018;13.586;2023-01-30T00:11:36;97862.50;;;-0.31;87.50
43155;BME280;34212;51.018;13.586;2023-01-30T00:16:37;97851.69;;;-0.27;87.53
43155;BME280;34212;51.018;13.586;2023-01-30T00:21:39;97836.06;;;-0.28;87.25
43155;BME280;34212;51.018;13.586;2023-01-30T00:26:40;97839.88;;;-0.32;87.06
43155;BME280;34212;51.018;13.586;2023-01-30T00:31:42;97842.94;;;-0.38;87.35
43155;BME280;34212;51.018;13.586;2023-01-30T00:36:44;97820.31;;;-0.39;87.05
43155;BME280;34212;51.018;13.586;2023-01-30T00:41:52;97821.13;;;-0.39;86.99
43155;BME280;34212;51.018;13.586;2023-01-30T00:47:12;97807.94;;;-0.37;87.02
43155;BME280;34212;51.018;13.586;2023-01-30T00:52:13;97794.09;;;-0.39;86.88
43155;BME280;34212;51.018;13.586;2023-01-30T00:57:15;97786.47;;;-0.42;86.77
43155;BME280;34212;51.018;13.586;2023-01-30T01:02:16;97774.31;;;-0.43;86.74
43155;BME280;34212;51.018;13.586;2023-01-30T01:07:18;97786.34;;;-0.41;87.17
43155;BME280;34212;51.018;13.586;2023-01-30T01:12:22;97783.41;;;-0.36;87.56
43155;BME280;34212;51.018;13.586;2023-01-30T01:17:24;97772.47;;;-0.30;87.39
43155;BME280;34212;51.018;13.586;2023-01-30T01:22:25;97749.34;;;-0.36;87.19
43155;BME280;34212;51.018;13.586;2023-01-30T01:27:28;97731.16;;;-0.51;86.49
43155;BME280;34212;51.018;13.586;2023-01-30T01:32:29;97713.50;;;-0.60;86.77
43155;BME280;34212;51.018;13.586;2023-01-30T01:37:31;97695.59;;;-0.66;85.88
43155;BME280;34212;51.018;13.586;2023-01-30T01:42:35;97683.25;;;-0.64;86.60
43155;BME280;34212;51.018;13.586;2023-01-30T01:47:42;97675.66;;;-0.56;86.95
43155;BME280;34212;51.018;13.586;2023-01-30T01:52:48;97663.56;;;-0.45;87.32
43155;BME280;34212;51.018;13.586;2023-01-30T01:57:56;97644.75;;;-0.39;87.42
43155;BME280;34212;51.018;13.586;2023-01-30T02:03:03;97621.91;;;-0.37;87.29
43155;BME280;34212;51.018;13.586;2023-01-30T02:08:09;97580.44;;;-0.32;87.61
43155;BME280;34212;51.018;13.586;2023-01-30T02:13:12;97562.09;;;-0.32;87.78
43155;BME280;34212;51.018;13.586;2023-01-30T02:18:14;97579.00;;;-0.36;87.75
43155;BME280;34212;51.018;13.586;2023-01-30T02:28:36;97561.41;;;-0.34;88.08
43155;BME280;34212;51.018;13.586;2023-01-30T02:44:05;97562.34;;;-0.02;88.72
43155;BME280;34212;51.018;13.586;2023-01-30T02:49:38;97568.06;;;0.15;89.60
43155;BME280;34212;51.018;13.586;2023-01-30T02:54:41;97541.44;;;0.31;89.88
43155;BME280;34212;51.018;13.586;2023-01-30T02:59:45;97530.78;;;0.43;89.78
43155;BME280;34212;51.018;13.586;2023-01-30T03:05:18;97501.91;;;0.55;89.85
43155;BME280;34212;51.018;13.586;2023-01-30T03:16:02;97497.31;;;0.68;89.79
43155;BME280;34212;51.018;13.586;2023-01-30T03:21:05;97478.19;;;0.77;90.13
43155;BME280;34212;51.018;13.586;2023-01-30T03:26:10;97437.22;;;0.86;90.04
43155;BME280;34212;51.018;13.586;2023-01-30T03:31:13;97413.47;;;0.87;89.65
43155;BME280;34212;51.018;13.586;2023-01-30T03:36:16;97429.22;;;0.87;89.81
43155;BME280;34212;51.018;13.586;2023-01-30T03:41:18;97417.03;;;0.86;89.50
43155;BME280;34212;51.018;13.586;2023-01-30T03:46:20;97419.00;;;0.84;89.80
43155;BME280;34212;51.018;13.586;2023-01-30T03:51:22;97402.78;;;0.79;89.59
43155;BME280;34212;51.018;13.586;2023-01-30T03:56:24;97409.25;;;0.75;89.35
43155;BME280;34212;51.018;13.586;2023-01-30T04:01:25;97413.53;;;0.76;90.09
43155;BME280;34212;51.018;13.586;2023-01-30T04:06:27;97389.97;;;0.86;90.63
43155;BME280;34212;51.018;13.586;2023-01-30T04:11:30;97411.75;;;0.98;90.49
43155;BME280;34212;51.018;13.586;2023-01-30T04:16:32;97388.25;;;1.06;90.08
43155;BME280;34212;51.018;13.586;2023-01-30T04:22:05;97368.69;;;1.10;90.21
43155;BME280;34212;51.018;13.586;2023-01-30T04:27:07;97361.31;;;1.04;89.61
43155;BME280;34212;51.018;13.586;2023-01-30T04:32:13;97337.75;;;0.92;89.96
43155;BME280;34212;51.018;13.586;2023-01-30T04:37:15;97333.59;;;0.90;90.67
43155;BME280;34212;51.018;13.586;2023-01-30T04:42:18;97337.50;;;0.96;90.96
43155;BME280;34212;51.018;13.586;2023-01-30T04:47:37;97328.72;;;1.06;91.31
43155;BME280;34212;51.018;13.586;2023-01-30T04:52:38;97326.94;;;1.17;91.13
43155;BME280;34212;51.018;13.586;2023-01-30T04:57:41;97318.53;;;1.23;91.39
43155;BME280;34212;51.018;13.586;2023-01-30T05:02:43;97304.72;;;1.30;91.49
43155;BME280;34212;51.018;13.586;2023-01-30T05:07:44;97314.16;;;1.43;91.54
43155;BME280;34212;51.018;13.586;2023-01-30T05:12:46;97274.38;;;1.57;91.71
43155;BME280;34212;51.018;13.586;2023-01-30T05:17:48;97253.34;;;1.67;91.09
43155;BME280;34212;51.018;13.586;2023-01-30T05:22:49;97228.97;;;1.74;90.79
43155;BME280;34212;51.018;13.586;2023-01-30T05:27:51;97217.38;;;1.77;90.71
43155;BME280;34212;51.018;13.586;2023-01-30T05:32:52;97208.38;;;1.79;90.43
43155;BME280;34212;51.018;13.586;2023-01-30T05:37:54;97211.97;;;1.78;90.99
43155;BME280;34212;51.018;13.586;2023-01-30T05:42:55;97211.44;;;1.75;91.00
43155;BME280;34212;51.018;13.586;2023-01-30T05:47:57;97201.31;;;1.70;91.02
43155;BME280;34212;51.018;13.586;2023-01-30T05:53:01;97205.59;;;1.71;91.83
43155;BME280;34212;51.018;13.586;2023-01-30T05:58:03;97178.63;;;1.69;91.56
43155;BME280;34212;51.018;13.586;2023-01-30T06:03:04;97169.94;;;1.69;92.08
43155;BME280;34212;51.018;13.586;2023-01-30T06:08:06;97203.25;;;1.68;92.69
43155;BME280;34212;51.018;13.586;2023-01-30T06:13:09;97174.06;;;1.71;93.04
43155;BME280;34212;51.018;13.586;2023-01-30T06:18:11;97172.81;;;1.75;92.55
43155;BME280;34212;51.018;13.586;2023-01-30T06:23:12;97173.38;;;1.79;93.21
43155;BME280;34212;51.018;13.586;2023-01-30T06:28:15;97171.69;;;1.88;93.31
43155;BME280;34212;51.018;13.586;2023-01-30T06:33:17;97184.97;;;1.96;92.84
43155;BME280;34212;51.018;13.586;2023-01-30T06:38:19;97179.69;;;1.96;92.56
43155;BME280;34212;51.018;13.586;2023-01-30T06:43:21;97174.44;;;1.96;93.20
43155;BME280;34212;51.018;13.586;2023-01-30T06:48:22;97193.53;;;1.98;92.92
43155;BME280;34212;51.018;13.586;2023-01-30T06:53:23;97199.09;;;1.95;92.20
43155;BME280;34212;51.018;13.586;2023-01-30T06:58:30;97201.84;;;1.83;91.89
43155;BME280;34212;51.018;13.586;2023-01-30T07:03:31;97197.31;;;1.76;92.61
43155;BME280;34212;51.018;13.586;2023-01-30T07:08:33;97212.94;;;1.77;92.65
43155;BME280;34212;51.018;13.586;2023-01-30T07:13:34;97206.56;;;1.80;93.24
43155;BME280;34212;51.018;13.586;2023-01-30T07:18:36;97210.44;;;1.85;93.43
43155;BME280;34212;51.018;13.586;2023-01-30T07:23:37;97182.47;;;1.94;93.76
43155;BME280;34212;51.018;13.586;2023-01-30T07:28:39;97199.88;;;2.05;94.78
43155;BME280;34212;51.018;13.586;2023-01-30T07:33:40;97186.59;;;2.16;94.29
43155;BME280;34212;51.018;13.586;2023-01-30T07:38:42;97179.66;;;2.25;94.42
43155;BME280;34212;51.018;13.586;2023-01-30T07:43:43;97170.78;;;2.26;94.06
43155;BME280;34212;51.018;13.586;2023-01-30T07:48:45;97181.84;;;2.29;94.57
43155;BME280;34212;51.018;13.586;2023-01-30T07:53:48;97166.59;;;2.33;93.93
43155;BME280;34212;51.018;13.586;2023-01-30T07:58:53;97159.97;;;2.29;93.52
43155;BME280;34212;51.018;13.586;2023-01-30T08:03:55;97173.53;;;2.34;94.10
43155;BME280;34212;51.018;13.586;2023-01-30T08:08:56;97170.50;;;2.29;92.94
43155;BME280;34212;51.018;13.586;2023-01-30T08:13:58;97182.84;;;2.19;92.67
43155;BME280;34212;51.018;13.586;2023-01-30T08:19:00;97167.19;;;2.17;93.48
43155;BME280;34212;51.018;13.586;2023-01-30T08:24:01;97185.88;;;2.14;93.18
43155;BME280;34212;51.018;13.586;2023-01-30T08:29:03;97196.13;;;2.17;94.44
43155;BME280;34212;51.018;13.586;2023-01-30T08:34:04;97185.44;;;2.28;95.00
43155;BME280;34212;51.018;13.586;2023-01-30T08:39:06;97170.75;;;2.36;94.74
43155;BME280;34212;51.018;13.586;2023-01-30T08:44:09;97162.25;;;2.42;95.00
43155;BME280;34212;51.018;13.586;2023-01-30T08:49:11;97169.59;;;2.48;95.63
43155;BME280;34212;51.018;13.586;2023-01-30T08:54:12;97171.06;;;2.60;95.12
43155;BME280;34212;51.018;13.586;2023-01-30T08:59:14;97175.59;;;2.68;94.96
43155;BME280;34212;51.018;13.586;2023-01-30T09:04:15;97175.69;;;2.76;95.37
43155;BME280;34212;51.018;13.586;2023-01-30T09:09:17;97170.28;;;2.77;94.44
43155;BME280;34212;51.018;13.586;2023-01-30T09:14:18;97147.56;;;2.76;95.21
43155;BME280;34212;51.018;13.586;2023-01-30T09:19:21;97155.84;;;2.82;95.06
43155;BME280;34212;51.018;13.586;2023-01-30T09:24:23;97170.06;;;2.89;95.25
43155;BME280;34212;51.018;13.586;2023-01-30T09:29:28;97175.75;;;2.94;95.04
43155;BME280;34212;51.018;13.586;2023-01-30T09:34:29;97167.84;;;2.94;94.11
43155;BME280;34212;51.018;13.586;2023-01-30T09:39:31;97179.66;;;2.90;94.08
43155;BME280;34212;51.018;13.586;2023-01-30T09:55:29;97145.00;;;3.12;95.10
43155;BME280;34212;51.018;13.586;2023-01-30T10:00:36;97149.66;;;3.18;93.85
43155;BME280;34212;51.018;13.586;2023-01-30T10:16:17;97116.00;;;3.30;94.12
43155;BME280;34212;51.018;13.586;2023-01-30T10:21:29;97122.78;;;3.33;94.10
43155;BME280;34212;51.018;13.586;2023-01-30T10:26:33;97113.94;;;3.42;93.42
43155;BME280;34212;51.018;13.586;2023-01-30T10:31:52;97126.84;;;3.45;93.24
43155;BME280;34212;51.018;13.586;2023-01-30T10:37:08;97137.38;;;3.45;92.86
43155;BME280;34212;51.018;13.586;2023-01-30T10:42:15;97128.13;;;3.41;93.11
43155;BME280;34212;51.018;13.586;2023-01-30T10:58:14;97116.53;;;3.34;92.41
43155;BME280;34212;51.018;13.586;2023-01-30T11:08:41;97128.94;;;3.23;92.80
43155;BME280;34212;51.018;13.586;2023-01-30T11:13:42;97123.84;;;3.22;93.24
43155;BME280;34212;51.018;13.586;2023-01-30T11:18:46;97118.69;;;3.20;92.79
43155;BME280;34212;51.018;13.586;2023-01-30T11:24:22;97138.72;;;3.13;92.61
43155;BME280;34212;51.018;13.586;2023-01-30T11:29:31;97121.88;;;3.06;93.07
43155;BME280;34212;51.018;13.586;2023-01-30T11:34:33;97111.25;;;2.98;92.99
43155;BME280;34212;51.018;13.586;2023-01-30T11:39:34;97108.91;;;2.95;93.68
43155;BME280;34212;51.018;13.586;2023-01-30T11:44:37;97108.31;;;3.01;93.57
43155;BME280;34212;51.018;13.586;2023-01-30T11:49:47;97111.34;;;3.06;93.54
43155;BME280;34212;51.018;13.586;2023-01-30T11:55:16;97112.69;;;3.10;94.04
43155;BME280;34212;51.018;13.586;2023-01-30T12:00:28;97099.91;;;3.15;93.99
43155;BME280;34212;51.018;13.586;2023-01-30T12:05:38;97101.53;;;3.16;93.38
43155;BME280;34212;51.018;13.586;2023-01-30T12:10:44;97086.56;;;3.17;93.29
43155;BME280;34212;51.018;13.586;2023-01-30T12:15:49;97082.06;;;3.27;94.30
43155;BME280;34212;51.018;13.586;2023-01-30T12:20:59;97060.41;;;3.41;93.92
43155;BME280;34212;51.018;13.586;2023-01-30T12:46:45;97018.97;;;3.52;93.42
43155;BME280;34212;51.018;13.586;2023-01-30T12:57:43;97021.81;;;3.58;93.23
43155;BME280;34212;51.018;13.586;2023-01-30T13:13:06;97017.47;;;3.49;93.27
43155;BME280;34212;51.018;13.586;2023-01-30T13:23:44;97031.22;;;3.61;93.48
43155;BME280;34212;51.018;13.586;2023-01-30T13:28:56;97025.84;;;3.70;93.25
43155;BME280;34212;51.018;13.586;2023-01-30T13:34:05;97033.91;;;3.69;93.34
43155;BME280;34212;51.018;13.586;2023-01-30T13:39:18;97026.13;;;3.67;93.09
43155;BME280;34212;51.018;13.586;2023-01-30T13:44:27;97023.69;;;3.66;92.62
43155;BME280;34212;51.018;13.586;2023-01-30T14:00:35;97025.19;;;4.45;91.16
43155;BME280;34212;51.018;13.586;2023-01-30T14:11:01;97035.31;;;4.15;91.81
43155;BME280;34212;51.018;13.586;2023-01-30T14:16:04;97028.03;;;4.09;92.05
43155;BME280;34212;51.018;13.586;2023-01-30T14:21:16;97024.19;;;4.04;91.28
43155;BME280;34212;51.018;13.586;2023-01-30T14:31:53;97056.03;;;3.76;91.95
43155;BME280;34212;51.018;13.586;2023-01-30T14:36:55;97044.97;;;3.73;92.13
43155;BME280;34212;51.018;13.586;2023-01-30T14:42:19;97059.16;;;3.72;91.32
43155;BME280;34212;51.018;13.586;2023-01-30T14:47:21;97057.47;;;3.70;92.19
43155;BME280;34212;51.018;13.586;2023-01-30T14:52:43;97058.84;;;3.75;91.78
43155;BME280;34212;51.018;13.586;2023-01-30T14:57:57;97049.94;;;3.76;90.96
43155;BME280;34212;51.018;13.586;2023-01-30T15:03:03;97053.72;;;3.73;91.40
43155;BME280;34212;51.018;13.586;2023-01-30T15:35:01;97095.50;;;3.42;91.83
43155;BME280;34212;51.018;13.586;2023-01-30T15:45:25;97120.19;;;2.87;90.20
43155;BME280;34212;51.018;13.586;2023-01-30T15:50:32;97140.94;;;2.72;92.00
43155;BME280;34212;51.018;13.586;2023-01-30T15:55:35;97142.88;;;2.70;92.76
43155;BME280;34212;51.018;13.586;2023-01-30T16:00:43;97152.75;;;2.68;93.81
43155;BME280;34212;51.018;13.586;2023-01-30T16:05:47;97159.38;;;2.72;94.02
43155;BME280;34212;51.018;13.586;2023-01-30T16:10:48;97165.31;;;2.74;93.79
43155;BME280;34212;51.018;13.586;2023-01-30T16:16:15;97164.03;;;2.78;93.96
43155;BME280;34212;51.018;13.586;2023-01-30T16:21:22;97177.22;;;2.78;94.26
43155;BME280;34212;51.018;13.586;2023-01-30T16:26:24;97187.03;;;2.76;94.33
43155;BME280;34212;51.018;13.586;2023-01-30T16:31:30;97173.59;;;2.80;94.44
43155;BME280;34212;51.018;13.586;2023-01-30T16:36:39;97178.28;;;2.86;94.81
43155;BME280;34212;51.018;13.586;2023-01-30T16:41:41;97175.06;;;2.92;94.66
43155;BME280;34212;51.018;13.586;2023-01-30T16:52:04;97173.88;;;3.04;94.69
43155;BME280;34212;51.018;13.586;2023-01-30T16:57:29;97184.50;;;3.12;93.95
43155;BME280;34212;51.018;13.586;2023-01-30T17:02:39;97193.06;;;3.14;94.40
43155;BME280;34212;51.018;13.586;2023-01-30T17:07:41;97211.16;;;3.09;93.15
43155;BME280;34212;51.018;13.586;2023-01-30T17:12:45;97222.88;;;2.97;93.61
43155;BME280;34212;51.018;13.586;2023-01-30T17:17:48;97214.25;;;2.95;94.04
43155;BME280;34212;51.018;13.586;2023-01-30T17:22:50;97234.81;;;2.91;94.17
43155;BME280;34212;51.018;13.586;2023-01-30T17:27:57;97224.44;;;2.90;94.87
43155;BME280;34212;51.018;13.586;2023-01-30T17:32:59;97229.25;;;2.94;94.29
43155;BME280;34212;51.018;13.586;2023-01-30T17:38:01;97234.22;;;2.97;94.19
43155;BME280;34212;51.018;13.586;2023-01-30T17:43:06;97231.72;;;2.96;94.25
43155;BME280;34212;51.018;13.586;2023-01-30T17:48:11;97234.97;;;2.90;94.00
43155;BME280;34212;51.018;13.586;2023-01-30T17:53:12;97248.72;;;2.84;95.04
43155;BME280;34212;51.018;13.586;2023-01-30T17:58:15;97252.59;;;2.80;94.43
43155;BME280;34212;51.018;13.586;2023-01-30T18:03:18;97270.06;;;2.81;94.82
43155;BME280;34212;51.018;13.586;2023-01-30T18:08:19;97264.22;;;2.87;95.59
43155;BME280;34212;51.018;13.586;2023-01-30T18:13:20;97311.63;;;2.87;94.90
43155;BME280;34212;51.018;13.586;2023-01-30T18:18:22;97318.00;;;2.84;95.12
43155;BME280;34212;51.018;13.586;2023-01-30T18:23:23;97330.78;;;2.79;94.26
43155;BME280;34212;51.018;13.586;2023-01-30T18:28:25;97355.31;;;2.70;94.44
43155;BME280;34212;51.018;13.586;2023-01-30T18:33:26;97353.22;;;2.73;95.31
43155;BME280;34212;51.018;13.586;2023-01-30T18:38:28;97364.19;;;2.78;95.57
43155;BME280;34212;51.018;13.586;2023-01-30T18:43:30;97371.78;;;2.82;95.66
43155;BME280;34212;51.018;13.586;2023-01-30T18:48:32;97387.84;;;2.88;95.97
43155;BME280;34212;51.018;13.586;2023-01-30T18:53:34;97362.06;;;2.92;95.37
43155;BME280;34212;51.018;13.586;2023-01-30T18:58:36;97395.03;;;2.96;95.06
43155;BME280;34212;51.018;13.586;2023-01-30T19:03:39;97411.13;;;3.03;95.77
43155;BME280;34212;51.018;13.586;2023-01-30T19:08:41;97416.13;;;3.06;95.34
43155;BME280;34212;51.018;13.586;2023-01-30T19:13:42;97432.75;;;3.06;95.42
43155;BME280;34212;51.018;13.586;2023-01-30T19:18:43;97433.28;;;3.10;94.67
43155;BME280;34212;51.018;13.586;2023-01-30T19:23:45;97433.84;;;3.13;94.66
43155;BME280;34212;51.018;13.586;2023-01-30T19:28:47;97450.19;;;3.17;94.91
43155;BME280;34212;51.018;13.586;2023-01-30T19:34:07;97484.03;;;3.21;94.54
43155;BME280;34212;51.018;13.586;2023-01-30T19:39:09;97495.94;;;3.26;93.97
43155;BME280;34212;51.018;13.586;2023-01-30T19:44:11;97503.72;;;3.27;94.26
43155;BME280;34212;51.018;13.586;2023-01-30T19:49:12;97486.78;;;3.30;94.02
43155;BME280;34212;51.018;13.586;2023-01-30T19:54:14;97504.56;;;3.28;93.51
43155;BME280;34212;51.018;13.586;2023-01-30T19:59:15;97509.13;;;3.26;94.15
43155;BME280;34212;51.018;13.586;2023-01-30T20:04:17;97519.53;;;3.27;94.33
43155;BME280;34212;51.018;13.586;2023-01-30T20:09:18;97558.63;;;3.32;94.42
43155;BME280;34212;51.018;13.586;2023-01-30T20:14:20;97525.91;;;3.34;94.09
43155;BME280;34212;51.018;13.586;2023-01-30T20:19:21;97543.53;;;3.34;93.92
43155;BME280;34212;51.018;13.586;2023-01-30T20:24:23;97538.94;;;3.36;93.41
43155;BME280;34212;51.018;13.586;2023-01-30T20:29:24;97525.63;;;3.37;94.02
43155;BME280;34212;51.018;13.586;2023-01-30T20:34:26;97541.16;;;3.40;93.82
43155;BME280;34212;51.018;13.586;2023-01-30T20:39:27;97561.13;;;3.43;93.75
43155;BME280;34212;51.018;13.586;2023-01-30T20:44:29;97542.97;;;3.40;93.13
43155;BME280;34212;51.018;13.586;2023-01-30T20:49:31;97566.28;;;3.35;93.01
43155;BME280;34212;51.018;13.586;2023-01-30T20:54:32;97588.63;;;3.31;93.68
43155;BME280;34212;51.018;13.586;2023-01-30T20:59:34;97601.25;;;3.27;93.72
43155;BME280;34212;51.018;13.586;2023-01-30T21:04:36;97609.00;;;3.29;93.64
43155;BME280;34212;51.018;13.586;2023-01-30T21:09:37;97616.63;;;3.32;94.11
43155;BME280;34212;51.018;13.586;2023-01-30T21:14:39;97626.19;;;3.33;93.83
43155;BME280;34212;51.018;13.586;2023-01-30T21:19:40;97640.78;;;3.37;93.74
43155;BME280;34212;51.018;13.586;2023-01-30T21:24:44;97616.06;;;3.38;93.30
43155;BME280;34212;51.018;13.586;2023-01-30T21:29:45;97616.50;;;3.43;93.48
43155;BME280;34212;51.018;13.586;2023-01-30T21:34:46;97634.97;;;3.43;93.75
43155;BME280;34212;51.018;13.586;2023-01-30T21:39:48;97626.34;;;3.31;93.89
43155;BME280;34212;51.018;13.586;2023-01-30T21:45:08;97652.81;;;3.00;90.33
43155;BME280;34212;51.018;13.586;2023-01-30T21:50:10;97657.88;;;2.83;93.54
43155;BME280;34212;51.018;13.586;2023-01-30T21:55:11;97660.53;;;2.83;95.66
43155;BME280;34212;51.018;13.586;2023-01-30T22:00:13;97670.94;;;2.84;95.30
43155;BME280;34212;51.018;13.586;2023-01-30T22:05:15;97666.22;;;2.88;95.77
43155;BME280;34212;51.018;13.586;2023-01-30T22:10:16;97690.38;;;2.93;96.33
43155;BME280;34212;51.018;13.586;2023-01-30T22:15:18;97690.38;;;2.93;95.50
43155;BME280;34212;51.018;13.586;2023-01-30T22:20:22;97678.16;;;2.92;95.77
43155;BME280;34212;51.018;13.586;2023-01-30T22:25:24;97700.19;;;2.91;95.40
43155;BME280;34212;51.018;13.586;2023-01-30T22:30:26;97722.00;;;2.93;95.81
43155;BME280;34212;51.018;13.586;2023-01-30T22:35:27;97733.63;;;2.90;95.30
43155;BME280;34212;51.018;13.586;2023-01-30T22:40:29;97761.31;;;2.85;94.72
43155;BME280;34212;51.018;13.586;2023-01-30T22:45:33;97741.75;;;2.77;94.09
43155;BME280;34212;51.018;13.586;2023-01-30T22:50:35;97737.28;;;2.68;94.12
43155;BME280;34212;51.018;13.586;2023-01-30T22:55:37;97750.44;;;2.68;94.70
43155;BME280;34212;51.018;13.586;2023-01-30T23:00:38;97747.56;;;2.71;94.81
43155;BME280;34212;51.018;13.586;2023-01-30T23:05:40;97726.91;;;2.76;94.61
43155;BME280;34212;51.018;13.586;2023-01-30T23:10:42;97725.41;;;2.84;94.24
43155;BME280;34212;51.018;13.586;2023-01-30T23:15:44;97746.53;;;2.93;94.84
43155;BME280;34212;51.018;13.586;2023-01-30T23:20:46;97773.16;;;3.00;94.21
43155;BME280;34212;51.018;13.586;2023-01-30T23:25:48;97750.72;;;3.06;93.90
43155;BME280;34212;51.018;13.586;2023-01-30T23:30:49;97754.19;;;3.06;93.82
43155;BME280;34212;51.018;13.586;2023-01-30T23:35:51;97755.59;;;3.10;93.54
43155;BME280;34212;51.018;13.586;2023-01-30T23:40:52;97767.50;;;3.14;93.12
43155;BME280;34212;51.018;13.586;2023-01-30T23:45:54;97753.38;;;3.15;92.66
43155;BME280;34212;51.018;13.586;2023-01-30T23:50:56;97766.94;;;3.11;92.85
43155;BME280;34212;51.018;13.586;2023-01-30T23:55:57;97765.69;;;3.05;92.67
